KDFI/DFI METAR and TAF weather

Enter ICAO airport designator
Station Type Date Time Source
KDFI METAR 2018/12/13 14:53 UTC NOAA

KDFI 131453Z AUTO 00000KT 8SM CLR M01/M02 A3016 RMK AO2 SLP219 I3000 T10061022 51013


Station Type Date Time Source
KDFI Decoded METAR 2018/12/13 14:53 UTC NOAA

DEFIANCE MEMORIAL AIRPORT, OH, United States (KDFI) 41-20N 84-26W 219M
Dec 13, 2018 - 09:53 AM EST / 2018.12.13 1453 UTC
Wind: Calm:0
Visibility: 8 mile(s):0
Sky conditions: clear
Temperature: 30.9 F (-0.6 C)
Dew Point: 28.0 F (-2.2 C)
Relative Humidity: 88%
Pressure (altimeter): 30.16 in. Hg (1021 hPa)
Pressure tendency: 0.04 inches (1.3 hPa) higher than three hours ago
ob: KDFI 131453Z AUTO 00000KT 8SM CLR M01/M02 A3016 RMK AO2 SLP219 I3000 T10061022 51013
cycle: 15

Station Type Date Time Source
KDFI TAF UTC NOAA

Error!


Example: see airport list